createdAt,value
2019-03-06T00:00:45.142Z,61.86
2019-03-06T00:03:18.324Z,61.88
2019-03-06T00:05:49.557Z,61.27
2019-03-06T00:08:21.128Z,61.27
2019-03-06T00:10:52.416Z,61.14
2019-03-06T00:13:23.868Z,61.02
2019-03-06T00:15:55.161Z,61.11
2019-03-06T00:18:27.614Z,60.89
2019-03-06T00:20:59.076Z,60.94
2019-03-06T00:23:30.718Z,61.33
2019-03-06T00:26:02.216Z,61.18
2019-03-06T00:28:33.659Z,61.06
2019-03-06T00:31:04.861Z,61.16
2019-03-06T00:33:36.292Z,61.16
2019-03-06T00:36:09.560Z,60.96
2019-03-06T00:38:40.760Z,60.95
2019-03-06T00:41:13.686Z,61.02
2019-03-06T00:43:46.163Z,60.99
2019-03-06T00:46:17.512Z,60.81
2019-03-06T00:48:48.798Z,60.76
2019-03-06T00:51:20.310Z,60.98
2019-03-06T00:53:51.767Z,61.00
2019-03-06T00:56:23.547Z,61.01
2019-03-06T00:58:54.963Z,61.17
2019-03-06T01:01:27.579Z,61.88
2019-03-06T01:03:59.223Z,62.49
2019-03-06T01:06:30.891Z,63.20
2019-03-06T01:09:05.124Z,63.59
2019-03-06T01:11:37.116Z,64.08
2019-03-06T01:14:08.506Z,64.45
2019-03-06T01:16:39.506Z,64.89
2019-03-06T01:19:12.147Z,65.11
2019-03-06T01:21:44.541Z,65.32
2019-03-06T01:24:15.653Z,65.55
2019-03-06T01:26:48.838Z,65.58
2019-03-06T01:29:20.284Z,65.51
2019-03-06T01:31:52.055Z,65.64
2019-03-06T01:34:41.324Z,65.66
2019-03-06T01:37:17.481Z,65.53
2019-03-06T01:39:53.637Z,64.55
2019-03-06T01:42:30.774Z,63.91
2019-03-06T01:45:02.215Z,63.03
2019-03-06T01:47:33.435Z,62.50
2019-03-06T01:50:07.533Z,61.41
2019-03-06T01:52:39.398Z,61.12
2019-03-06T01:55:12.720Z,60.71
2019-03-06T01:57:43.996Z,60.49
2019-03-06T02:00:21.051Z,60.38
2019-03-06T02:02:52.271Z,60.23
2019-03-06T02:05:23.450Z,59.90
2019-03-06T02:07:54.973Z,59.99
2019-03-06T02:10:26.354Z,59.76
2019-03-06T02:12:58.086Z,59.54
2019-03-06T02:15:30.454Z,59.29
2019-03-06T02:18:02.845Z,59.60
2019-03-06T02:20:35.748Z,59.47
2019-03-06T02:23:06.971Z,59.35
2019-03-06T02:25:38.614Z,58.89
2019-03-06T02:28:09.969Z,58.79
2019-03-06T02:30:42.444Z,58.74
2019-03-06T02:33:13.688Z,58.83
2019-03-06T02:35:44.936Z,58.73
2019-03-06T02:38:16.404Z,58.61
2019-03-06T02:40:47.585Z,58.12
2019-03-06T02:43:18.986Z,57.83
2019-03-06T02:45:50.546Z,57.80
2019-03-06T02:48:22.813Z,57.60
2019-03-06T02:50:54.180Z,57.61
2019-03-06T02:53:25.614Z,57.80
2019-03-06T02:55:57.961Z,57.75
2019-03-06T02:58:45.759Z,57.51
2019-03-06T03:01:27.925Z,57.36
2019-03-06T03:04:09.870Z,57.62
2019-03-06T03:06:44.006Z,57.43
2019-03-06T03:09:16.998Z,57.88
2019-03-06T03:11:48.173Z,57.39
2019-03-06T03:14:19.626Z,57.51
2019-03-06T03:16:54.997Z,57.61
2019-03-06T03:19:27.213Z,57.49
2019-03-06T03:21:59.968Z,57.82
2019-03-06T03:24:31.276Z,58.22
2019-03-06T03:27:02.821Z,58.94
2019-03-06T03:29:34.087Z,59.53
2019-03-06T03:32:05.391Z,60.15
2019-03-06T03:34:37.087Z,60.36
2019-03-06T03:37:08.629Z,60.53
2019-03-06T03:39:39.889Z,60.67
2019-03-06T03:42:11.025Z,60.76
2019-03-06T03:44:43.090Z,60.86
2019-03-06T03:47:14.577Z,61.27
2019-03-06T03:49:45.901Z,61.66
2019-03-06T03:52:17.180Z,61.77
2019-03-06T03:54:48.489Z,62.18
2019-03-06T03:57:20.250Z,62.50
2019-03-06T03:59:51.389Z,62.64
2019-03-06T04:02:22.654Z,63.07
2019-03-06T04:04:55.320Z,63.29
2019-03-06T04:07:26.792Z,63.63
2019-03-06T04:09:58.323Z,63.98
2019-03-06T04:12:29.771Z,63.93
2019-03-06T04:15:01.335Z,64.17
2019-03-06T04:17:32.888Z,64.43
2019-03-06T04:20:04.795Z,64.58
2019-03-06T04:22:37.836Z,64.57
2019-03-06T04:25:10.573Z,64.70
2019-03-06T04:27:42.005Z,64.88
2019-03-06T04:30:17.824Z,64.84
2019-03-06T04:32:48.979Z,64.84
2019-03-06T04:35:20.379Z,64.05
2019-03-06T04:37:51.703Z,63.35
2019-03-06T04:40:23.079Z,62.78
2019-03-06T04:42:56.627Z,61.50
2019-03-06T04:45:27.996Z,61.40
2019-03-06T04:48:00.659Z,60.49
2019-03-06T04:50:33.084Z,60.35
2019-03-06T04:53:06.641Z,59.55
2019-03-06T04:55:41.769Z,59.50
2019-03-06T04:58:13.217Z,59.30
2019-03-06T05:00:44.460Z,59.22
2019-03-06T05:03:15.816Z,59.09
2019-03-06T05:05:47.369Z,59.00
2019-03-06T05:08:18.719Z,58.87
2019-03-06T05:10:50.247Z,58.88
2019-03-06T05:13:25.263Z,58.76
2019-03-06T05:15:58.822Z,59.85
2019-03-06T05:18:34.572Z,58.76
2019-03-06T05:21:06.227Z,58.50
2019-03-06T05:23:43.108Z,58.37
2019-03-06T05:26:14.660Z,58.18
2019-03-06T05:28:48.929Z,57.64
2019-03-06T05:31:21.043Z,57.45
2019-03-06T05:33:52.490Z,57.29
2019-03-06T05:36:39.097Z,57.02
2019-03-06T05:39:11.203Z,56.43
2019-03-06T05:41:42.920Z,56.32
2019-03-06T05:44:14.529Z,55.88
2019-03-06T05:46:48.693Z,55.72
2019-03-06T05:49:20.042Z,55.10
2019-03-06T05:51:52.272Z,54.94
2019-03-06T05:54:25.647Z,54.87
2019-03-06T05:56:57.071Z,54.34
2019-03-06T05:59:28.342Z,53.92
2019-03-06T06:01:59.977Z,53.73
2019-03-06T06:04:31.314Z,53.49
2019-03-06T06:07:03.820Z,52.74
2019-03-06T06:09:35.247Z,52.18
2019-03-06T06:12:06.795Z,52.19
2019-03-06T06:14:38.312Z,51.80
2019-03-06T06:17:09.903Z,52.06
2019-03-06T06:19:41.557Z,51.91
2019-03-06T06:22:26.435Z,51.12
2019-03-06T06:24:59.234Z,51.10
2019-03-06T06:27:30.871Z,50.90
2019-03-06T06:30:02.982Z,50.36
2019-03-06T06:32:34.534Z,50.07
2019-03-06T06:35:08.801Z,49.82
2019-03-06T06:37:40.611Z,49.33
2019-03-06T06:40:13.462Z,49.90
2019-03-06T06:45:18.346Z,49.19
2019-03-06T06:48:14.123Z,49.60
2019-03-06T06:51:00.951Z,49.30
2019-03-06T06:53:34.189Z,49.05
2019-03-06T06:56:11.620Z,48.78
2019-03-06T06:58:51.810Z,48.44
2019-03-06T07:01:40.158Z,48.04
2019-03-06T07:04:43.233Z,48.22
2019-03-06T07:07:20.608Z,47.93
2019-03-06T07:10:02.722Z,47.95
2019-03-06T07:12:36.944Z,47.72
2019-03-06T07:15:11.967Z,47.20
2019-03-06T07:17:52.641Z,47.10
2019-03-06T07:20:40.661Z,46.82
2019-03-06T07:23:33.836Z,46.88
2019-03-06T07:26:17.534Z,46.36
2019-03-06T07:28:56.503Z,46.07
2019-03-06T07:31:38.500Z,45.44
2019-03-06T07:34:22.927Z,45.47
2019-03-06T07:36:56.189Z,46.03
2019-03-06T07:39:29.343Z,45.90
2019-03-06T07:42:20.859Z,46.13
2019-03-06T07:45:16.473Z,46.28
2019-03-06T07:47:49.681Z,47.20
2019-03-06T07:50:22.626Z,45.67
2019-03-06T07:53:39.075Z,45.56
2019-03-06T07:56:12.021Z,45.54
2019-03-06T07:58:53.935Z,45.06
2019-03-06T08:01:31.951Z,45.04
2019-03-06T08:04:06.496Z,45.34
2019-03-06T08:06:38.062Z,44.18
2019-03-06T08:09:11.646Z,45.24
2019-03-06T08:12:00.932Z,44.80
2019-03-06T08:14:42.880Z,43.84
2019-03-06T08:17:17.154Z,44.10
2019-03-06T08:20:02.811Z,44.07
2019-03-06T08:22:38.966Z,44.93
2019-03-06T08:25:28.379Z,44.31
2019-03-06T08:28:01.343Z,44.40
2019-03-06T08:30:35.470Z,44.77
2019-03-06T08:33:06.383Z,45.07
2019-03-06T08:35:39.578Z,45.47
2019-03-06T08:38:11.688Z,45.14
2019-03-06T08:40:44.435Z,44.47
2019-03-06T08:43:16.129Z,44.30
2019-03-06T08:45:55.238Z,44.11
2019-03-06T08:48:37.560Z,44.75
2019-03-06T08:51:15.301Z,44.18
2019-03-06T08:54:03.906Z,44.80
2019-03-06T08:56:44.929Z,45.56
2019-03-06T08:59:18.795Z,45.89
2019-03-06T09:02:00.071Z,44.86
2019-03-06T09:04:43.310Z,44.75
2019-03-06T09:07:20.573Z,44.74
2019-03-06T09:10:02.674Z,44.38
2019-03-06T09:12:39.935Z,44.18
2019-03-06T09:15:17.954Z,43.03
2019-03-06T09:18:09.560Z,42.52
2019-03-06T09:20:53.774Z,42.18
2019-03-06T09:23:33.085Z,40.84
2019-03-06T09:26:06.044Z,40.46
2019-03-06T09:28:49.317Z,41.28
2019-03-06T09:31:22.569Z,40.72
2019-03-06T09:33:58.816Z,41.06
2019-03-06T09:36:33.034Z,39.98
2019-03-06T09:39:26.573Z,39.58
2019-03-06T09:42:01.297Z,39.64
2019-03-06T09:44:47.515Z,39.80
2019-03-06T09:47:20.539Z,39.00
2019-03-06T09:50:03.073Z,37.76
2019-03-06T09:52:53.592Z,38.30
2019-03-06T09:55:34.552Z,38.21
2019-03-06T09:58:10.846Z,38.03
2019-03-06T10:00:52.523Z,37.51
2019-03-06T10:03:41.772Z,37.02
2019-03-06T10:06:16.953Z,38.06
2019-03-06T10:09:06.184Z,36.47
2019-03-06T10:11:49.868Z,36.83
2019-03-06T10:14:43.791Z,37.06
2019-03-06T10:17:30.204Z,36.87
2019-03-06T10:20:06.581Z,37.08
2019-03-06T10:22:38.358Z,37.14
2019-03-06T10:25:11.378Z,36.74
2019-03-06T10:27:43.910Z,36.20
2019-03-06T10:30:18.726Z,35.54
2019-03-06T10:32:50.766Z,35.02
2019-03-06T10:35:22.704Z,35.61
2019-03-06T10:37:54.359Z,35.10
2019-03-06T10:40:25.771Z,33.34
2019-03-06T10:42:58.947Z,31.58
2019-03-06T10:45:30.509Z,30.95
2019-03-06T10:48:04.349Z,29.73
2019-03-06T10:50:38.200Z,29.25
2019-03-06T10:53:09.794Z,28.44
2019-03-06T10:55:41.720Z,28.58
2019-03-06T10:58:14.230Z,28.41
2019-03-06T11:00:49.811Z,28.35
2019-03-06T11:03:24.496Z,27.99
2019-03-06T11:05:57.389Z,27.40
2019-03-06T11:08:28.832Z,26.81
2019-03-06T11:11:01.545Z,26.44
2019-03-06T11:13:32.971Z,26.28
2019-03-06T11:16:06.481Z,25.65
2019-03-06T11:18:38.315Z,25.96
2019-03-06T11:21:10.023Z,26.62
2019-03-06T11:23:41.755Z,27.00
2019-03-06T11:26:14.638Z,26.59
2019-03-06T11:28:46.839Z,26.34
2019-03-06T11:31:19.676Z,26.68
2019-03-06T11:33:52.953Z,26.42
2019-03-06T11:36:26.691Z,26.68
2019-03-06T11:38:58.879Z,26.89
2019-03-06T11:41:30.976Z,25.78
2019-03-06T11:44:03.339Z,26.98
2019-03-06T11:46:36.223Z,27.15
2019-03-06T11:49:08.915Z,28.14
2019-03-06T11:51:40.226Z,28.05
2019-03-06T11:54:15.558Z,26.94
2019-03-06T11:56:58.703Z,25.93
2019-03-06T11:59:31.080Z,27.61
2019-03-06T12:02:10.926Z,27.39
2019-03-06T12:04:49.653Z,26.33
2019-03-06T12:07:22.461Z,25.99
2019-03-06T12:09:53.944Z,25.25
2019-03-06T12:12:26.239Z,25.06
2019-03-06T12:14:57.702Z,24.67
2019-03-06T12:17:31.714Z,24.37
2019-03-06T12:20:08.151Z,24.29
2019-03-06T12:22:41.835Z,25.44
2019-03-06T12:25:19.562Z,25.76
2019-03-06T12:27:52.913Z,25.80
2019-03-06T12:30:25.534Z,25.66
2019-03-06T12:32:59.641Z,25.26
2019-03-06T12:35:30.385Z,25.09
2019-03-06T12:38:02.707Z,25.01
2019-03-06T12:40:36.845Z,24.87
2019-03-06T12:43:11.605Z,24.97
2019-03-06T12:45:46.680Z,24.90
2019-03-06T12:48:18.480Z,24.70
2019-03-06T12:50:56.002Z,25.52
2019-03-06T12:53:26.297Z,25.90
2019-03-06T12:55:57.687Z,25.68
2019-03-06T12:58:29.964Z,26.39
2019-03-06T13:01:03.334Z,25.88
2019-03-06T13:03:35.941Z,25.40
2019-03-06T13:06:08.536Z,26.70
2019-03-06T13:08:49.983Z,28.04
2019-03-06T13:11:16.750Z,28.49
2019-03-06T13:13:47.882Z,27.88
2019-03-06T13:16:20.249Z,27.41
2019-03-06T13:18:52.308Z,26.69
2019-03-06T13:21:26.129Z,27.10
2019-03-06T13:23:57.704Z,27.65
2019-03-06T13:26:34.101Z,28.73
2019-03-06T13:29:07.261Z,31.49
2019-03-06T13:31:40.963Z,32.18
2019-03-06T13:34:21.222Z,32.50
2019-03-06T13:36:57.697Z,33.71
2019-03-06T13:39:29.242Z,35.15
2019-03-06T13:42:02.159Z,35.03
2019-03-06T13:44:37.404Z,33.68
2019-03-06T13:47:10.825Z,32.97
2019-03-06T13:49:43.869Z,33.92
2019-03-06T13:52:17.223Z,34.81
2019-03-06T13:54:49.348Z,35.68
2019-03-06T13:57:21.198Z,36.37
2019-03-06T13:59:54.238Z,36.96
2019-03-06T14:02:29.468Z,37.57
2019-03-06T14:05:01.633Z,38.12
2019-03-06T14:07:33.538Z,38.22
2019-03-06T14:10:07.531Z,38.22
2019-03-06T14:12:40.537Z,38.48
2019-03-06T14:15:12.805Z,38.72
2019-03-06T14:17:46.630Z,38.99
2019-03-06T14:20:20.895Z,39.45
2019-03-06T14:22:52.286Z,39.79
2019-03-06T14:25:23.914Z,40.03
2019-03-06T14:27:56.705Z,40.15
2019-03-06T14:30:34.533Z,40.52
2019-03-06T14:33:06.295Z,40.96
2019-03-06T14:35:39.594Z,41.11
2019-03-06T14:38:11.158Z,41.36
2019-03-06T14:40:42.818Z,41.60
2019-03-06T14:43:16.688Z,41.74
2019-03-06T14:45:48.158Z,41.70
2019-03-06T14:48:19.510Z,41.83
2019-03-06T14:50:50.963Z,41.71
2019-03-06T14:53:25.570Z,41.64
2019-03-06T14:55:56.851Z,41.86
2019-03-06T14:58:28.408Z,42.09
2019-03-06T15:01:00.971Z,42.42
2019-03-06T15:03:32.469Z,42.59
2019-03-06T15:06:04.078Z,42.80
2019-03-06T15:08:38.414Z,42.95
2019-03-06T15:11:09.233Z,43.04
2019-03-06T15:13:41.405Z,43.24
2019-03-06T15:16:13.674Z,43.17
2019-03-06T15:18:45.158Z,43.41
2019-03-06T15:21:16.479Z,43.37
2019-03-06T15:23:48.840Z,43.55
2019-03-06T15:26:21.052Z,43.35
2019-03-06T15:28:54.483Z,43.63
2019-03-06T15:31:26.727Z,43.88
2019-03-06T15:33:58.933Z,44.25
2019-03-06T15:36:33.346Z,44.30
2019-03-06T15:39:06.711Z,44.48
2019-03-06T15:41:38.233Z,44.67
2019-03-06T15:44:17.456Z,44.70
2019-03-06T15:46:52.361Z,44.95
2019-03-06T15:49:25.131Z,45.07
2019-03-06T15:51:56.610Z,45.16
2019-03-06T15:54:30.810Z,45.32
2019-03-06T15:57:03.759Z,45.38
2019-03-06T15:59:35.326Z,45.52
2019-03-06T16:02:06.651Z,45.55
2019-03-06T16:04:40.446Z,45.89
2019-03-06T16:07:12.766Z,45.91
2019-03-06T16:09:44.581Z,45.85
2019-03-06T16:12:16.147Z,46.11
2019-03-06T16:14:50.129Z,46.11
2019-03-06T16:17:22.814Z,46.02
2019-03-06T16:19:54.009Z,46.33
2019-03-06T16:22:25.822Z,46.35
2019-03-06T16:24:57.505Z,46.20
2019-03-06T16:27:30.062Z,46.17
2019-03-06T16:30:03.152Z,46.45
2019-03-06T16:32:36.038Z,46.37
2019-03-06T16:35:07.560Z,46.52
2019-03-06T16:37:43.864Z,46.57
2019-03-06T16:40:25.358Z,46.71
2019-03-06T16:42:56.767Z,46.87
2019-03-06T16:45:30.094Z,46.92
2019-03-06T16:48:03.188Z,46.94
2019-03-06T16:50:34.878Z,47.13
2019-03-06T16:53:06.399Z,46.95
2019-03-06T16:55:39.897Z,47.13
2019-03-06T16:58:12.074Z,47.31
2019-03-06T17:00:45.167Z,46.99
2019-03-06T17:03:18.359Z,47.22
2019-03-06T17:05:50.053Z,46.90
2019-03-06T17:08:23.644Z,46.82
2019-03-06T17:10:57.551Z,46.74
2019-03-06T17:13:31.433Z,46.75
2019-03-06T17:16:06.136Z,46.94
2019-03-06T17:18:37.406Z,46.92
2019-03-06T17:21:09.989Z,46.95
2019-03-06T17:23:41.186Z,46.90
2019-03-06T17:26:16.027Z,46.95
2019-03-06T17:28:47.876Z,47.09
2019-03-06T17:31:19.397Z,47.32
2019-03-06T17:33:50.644Z,47.40
2019-03-06T17:36:21.953Z,47.55
2019-03-06T17:38:58.217Z,47.53
2019-03-06T17:41:31.419Z,47.71
2019-03-06T17:44:03.164Z,47.97
2019-03-06T17:46:35.664Z,48.21
2019-03-06T17:49:07.486Z,48.13
2019-03-06T17:51:38.879Z,48.22
2019-03-06T17:54:11.289Z,48.51
2019-03-06T17:56:42.894Z,48.78
2019-03-06T17:59:14.456Z,48.82
2019-03-06T18:01:45.950Z,48.98
2019-03-06T18:04:17.947Z,49.04
2019-03-06T18:06:50.392Z,49.20
2019-03-06T18:09:21.722Z,49.35
2019-03-06T18:11:53.004Z,49.47
2019-03-06T18:14:38.123Z,49.60
2019-03-06T18:17:10.340Z,49.75
2019-03-06T18:19:42.159Z,50.09
2019-03-06T18:22:13.511Z,50.40
2019-03-06T18:24:44.773Z,50.60
2019-03-06T18:27:16.101Z,50.63
2019-03-06T18:29:48.277Z,51.03
2019-03-06T18:32:23.730Z,51.34
2019-03-06T18:34:55.460Z,51.43
2019-03-06T18:37:27.051Z,51.44
2019-03-06T18:40:01.136Z,51.60
2019-03-06T18:42:33.732Z,51.80
2019-03-06T18:45:08.153Z,51.92
2019-03-06T18:47:39.767Z,51.74
2019-03-06T18:50:13.877Z,51.78
2019-03-06T18:52:50.121Z,51.46
2019-03-06T18:55:21.429Z,51.66
2019-03-06T18:57:53.999Z,51.77
2019-03-06T19:00:27.377Z,51.93
2019-03-06T19:02:58.974Z,52.14
2019-03-06T19:05:30.722Z,52.25
2019-03-06T19:08:03.827Z,52.94
2019-03-06T19:10:35.382Z,52.75
2019-03-06T19:13:08.463Z,53.49
2019-03-06T19:15:40.148Z,53.49
2019-03-06T19:18:11.942Z,53.48
2019-03-06T19:20:43.623Z,53.76
2019-03-06T19:23:15.534Z,54.08
2019-03-06T19:25:46.869Z,54.26
2019-03-06T19:28:19.418Z,54.60
2019-03-06T19:30:50.892Z,54.97
2019-03-06T19:33:22.522Z,55.01
2019-03-06T19:35:54.174Z,55.12
2019-03-06T19:38:26.395Z,55.12
2019-03-06T19:40:59.863Z,55.18
2019-03-06T19:43:33.164Z,55.44
2019-03-06T19:46:04.449Z,55.61
2019-03-06T19:48:36.569Z,55.95
2019-03-06T19:51:11.898Z,56.14
2019-03-06T19:53:45.566Z,56.19
2019-03-06T19:56:18.509Z,56.36
2019-03-06T19:58:51.176Z,56.61
2019-03-06T20:01:22.630Z,56.97
2019-03-06T20:03:54.144Z,57.16
2019-03-06T20:06:27.331Z,57.28
2019-03-06T20:09:00.815Z,57.42
2019-03-06T20:11:34.075Z,57.46
2019-03-06T20:14:07.474Z,57.84
2019-03-06T20:16:39.131Z,57.99
2019-03-06T20:19:10.685Z,58.35
2019-03-06T20:21:44.007Z,58.50
2019-03-06T20:24:15.320Z,58.94
2019-03-06T20:26:47.804Z,59.15
2019-03-06T20:29:19.557Z,59.25
2019-03-06T20:31:51.010Z,59.43
2019-03-06T20:34:22.732Z,59.70
2019-03-06T20:36:55.584Z,60.00
2019-03-06T20:39:27.727Z,60.25
2019-03-06T20:41:59.934Z,60.49
2019-03-06T20:44:31.384Z,60.70
2019-03-06T20:47:04.161Z,60.94
2019-03-06T20:49:36.287Z,61.21
2019-03-06T20:52:07.435Z,61.39
2019-03-06T20:54:40.810Z,61.80
2019-03-06T20:57:12.297Z,62.26
2019-03-06T20:59:43.919Z,62.53
2019-03-06T21:02:15.466Z,62.90
2019-03-06T21:04:46.826Z,63.09
2019-03-06T21:07:18.263Z,63.31
2019-03-06T21:09:49.568Z,63.28
2019-03-06T21:12:21.200Z,63.81
2019-03-06T21:14:52.860Z,63.93
2019-03-06T21:17:24.105Z,64.06
2019-03-06T21:19:55.580Z,64.29
2019-03-06T21:22:26.904Z,64.46
2019-03-06T21:24:58.511Z,64.66
2019-03-06T21:27:29.648Z,63.94
2019-03-06T21:30:03.599Z,63.92
2019-03-06T21:32:35.620Z,63.97
2019-03-06T21:35:07.345Z,64.10
2019-03-06T21:37:38.694Z,64.14
2019-03-06T21:40:11.783Z,64.31
2019-03-06T21:42:45.441Z,64.23
2019-03-06T21:45:17.489Z,64.02
2019-03-06T21:47:50.177Z,63.86
2019-03-06T21:50:21.315Z,63.80
2019-03-06T21:52:52.938Z,63.23
2019-03-06T21:55:24.444Z,63.11
2019-03-06T21:57:55.885Z,63.03
2019-03-06T22:00:27.306Z,63.49
2019-03-06T22:03:02.649Z,62.91
2019-03-06T22:05:35.516Z,62.88
2019-03-06T22:08:07.180Z,61.25
2019-03-06T22:10:40.979Z,61.25
2019-03-06T22:13:21.549Z,61.51
2019-03-06T22:15:53.219Z,61.48
2019-03-06T22:18:24.868Z,61.79
2019-03-06T22:20:57.139Z,62.14
2019-03-06T22:23:28.387Z,61.66
2019-03-06T22:25:59.741Z,62.09
2019-03-06T22:28:30.932Z,62.29
2019-03-06T22:31:02.750Z,62.56
2019-03-06T22:33:34.231Z,62.72
2019-03-06T22:36:05.941Z,62.99
2019-03-06T22:38:37.398Z,63.28
2019-03-06T22:41:08.848Z,63.26
2019-03-06T22:43:41.165Z,63.30
2019-03-06T22:46:12.579Z,63.08
2019-03-06T22:48:43.960Z,62.97
2019-03-06T22:51:16.396Z,62.73
2019-03-06T22:53:48.460Z,62.40
2019-03-06T22:56:20.807Z,62.42
2019-03-06T22:58:53.213Z,62.30
2019-03-06T23:01:27.335Z,62.61
2019-03-06T23:03:58.684Z,62.65
2019-03-06T23:06:35.664Z,62.58
2019-03-06T23:09:09.185Z,62.30
2019-03-06T23:11:40.810Z,62.38
2019-03-06T23:14:12.212Z,62.68
2019-03-06T23:16:43.717Z,62.83
2019-03-06T23:19:14.860Z,62.95
2019-03-06T23:21:50.822Z,63.06
2019-03-06T23:24:23.392Z,62.86
2019-03-06T23:26:54.626Z,62.68
2019-03-06T23:29:25.994Z,62.47
2019-03-06T23:31:57.412Z,62.38
2019-03-06T23:34:29.032Z,62.22
2019-03-06T23:37:00.651Z,62.04
2019-03-06T23:39:32.207Z,62.45
2019-03-06T23:42:03.596Z,61.82
2019-03-06T23:44:36.244Z,62.05
2019-03-06T23:47:07.838Z,61.86
2019-03-06T23:49:39.149Z,62.05
2019-03-06T23:52:14.215Z,62.29
2019-03-06T23:54:45.745Z,62.08
2019-03-06T23:57:18.014Z,62.33
2019-03-06T23:59:49.576Z,62.55
